Nearby METAR Reports

 

KSJC - San Jose, California, USA
Distance from station: NE 14km
Actualización: 15/07/2020 18:53
Muy nuboso
Muy nuboso
 Viento del SSE
Viento: SSE 17 km/h
Temperatura: 19°C
Rocío: 11°C
Humedad: 60%
Barómetro: 1013.2 hPa
Clouds: Muy nuboso
Visibilidad: 16 km
Cloud details: Few Clouds 823 m
Muy nuboso 1219 m
Muy nuboso 1829 m
2020/07/15 16:53 KSJC 151653Z 16009KT 10SM FEW027 BKN040 BKN060 19/11 A2992 RMK AO2 SLP132 FU BKN040 FU BKN060 T01940111
KNUQ - Moffett Nas/Mtn, California, USA
Distance from station: N 14km
Actualización: 15/07/2020 19:20
unable to load KNUQ data RC=
unable to load KNUQ data RC=
 
 
KPAO - Palo Alto, California, USA
Distance from station: NNO 23km
Actualización: 15/07/2020 18:47
Parcialmente nuboso
Parcialmente nuboso
 Viento del E
Viento: E 13 km/h
Temperatura: 18°C
Rocío: 13°C
Humedad: 73%
Barómetro: 1013.2 hPa
Clouds: Parcialmente nuboso
Visibilidad: 16 km
Cloud details: Few Clouds 457 m
Parcialmente nuboso 1676 m
2020/07/15 16:47 KPAO 151647Z 09007KT 10SM FEW015 SCT055 18/13 A2992
KRHV - San Jose/Reid, California, USA
Distance from station: ENE 19km
Actualización: 15/07/2020 18:50
Muy nuboso
Muy nuboso
 Viento del S
Viento: S 17 km/h
Temperatura: 18°C
Rocío: 12°C
Humedad: 68%
Barómetro: 1013.5 hPa
Clouds: Muy nuboso
Visibilidad: 16 km
Cloud details: Muy nuboso 2286 m
2020/07/15 16:50 KRHV 151650Z 19009KT 10SM BKN075 18/12 A2993
 
KOAK - Oakland, California, USA
Distance from station: NNO 50km
Actualización: 15/07/2020 19:12
Muy nuboso
Muy nuboso
 Viento del O
Viento: O 11 km/h
Temperatura: 19°C
Rocío: 13°C
Humedad: 68%
Barómetro: 1013.9 hPa
Clouds: Muy nuboso
Visibilidad: 16 km
Cloud details: Muy nuboso 457 m
2020/07/15 17:12 KOAK 151712Z 28006KT 10SM BKN015 19/13 A2994 RMK AO2 T01940133
KSQL - San Carlos Airpo, California, USA
Distance from station: NO 34km
Actualización: 15/07/2020 18:47
Muy nuboso
Muy nuboso
 Viento del N
Viento: N 7 km/h
Temperatura: 18°C
Rocío: 13°C
Humedad: 73%
Barómetro: 1013.9 hPa
Clouds: Muy nuboso
Visibilidad: 16 km
Cloud details: Muy nuboso 457 m
2020/07/15 16:47 KSQL 151647Z 01004KT 10SM BKN015 18/13 A2994
 
KSFO - San Francisco, California, USA
Distance from station: NO 49km
Actualización: 15/07/2020 18:56
Muy nuboso
Muy nuboso
 Viento del NE
Viento: NE 9 km/h
Temperatura: 18°C
Rocío: 12°C
Humedad: 68%
Barómetro: 1013.5 hPa
Clouds: Muy nuboso
Visibilidad: 16 km
Cloud details: Parcialmente nuboso 518 m
Muy nuboso 6096 m
2020/07/15 16:56 KSFO 151656Z 05005KT 10SM SCT017 BKN200 18/12 A2993 RMK AO2 SLP135 T01830122
KE16 - San Martin, California, USA
Distance from station: ESE 43km
Actualización: 15/07/2020 19:15
Haze, Despejado
Haze, Despejado
 Viento del ESE
Viento: ESE 17 km/h
Temperatura: 16°C
Rocío: 12°C
Humedad: 77%
Barómetro: 1014.9 hPa
Resumen: Haze
Clouds: Despejado
Visibilidad: 10 km
2020/07/15 17:15 KE16 151715Z AUTO 12009KT 6SM HZ CLR 16/12 A2997 RMK AO2 PWINO PNO
 
KWVI - Watsonville, California, USA
Distance from station: SSE 44km
Actualización: 15/07/2020 18:53
Cubierto
Cubierto
 Viento del O
Viento: O 11 km/h
Temperatura: 16°C
Rocío: 13°C
Humedad: 83%
Barómetro: 1014.9 hPa
Clouds: Cubierto
Visibilidad: 16 km
Cloud details: Cubierto 335 m
2020/07/15 16:53 KWVI 151653Z AUTO 27006KT 10SM OVC011 16/13 A2997 RMK AO2 SLP147 T01560128
KHAF - Half Moon Bay, California, USA
Distance from station: ONO 50km
Actualización: 14/07/2020 17:40
NOT Current
Mist, Muy nuboso
Mist, Muy nuboso
 Viento del S
Viento: S 20 km/h
Temperatura: 13°C
Rocío: 11°C
Humedad: 88%
Barómetro: 1014.9 hPa
Resumen: Mist
Clouds: Muy nuboso
Visibilidad: 5 km
Cloud details: Muy nuboso 396 m
2020/07/14 15:40 KHAF 141540Z AUTO 17011KT 3SM BR BKN013 13/11 A2997 RMK AO2
 
KHWD - Hayward, California, USA
Distance from station: N 44km
Actualización: 15/07/2020 18:54
Despejado
Despejado
 Viento del calm
Viento: Calma
Temperatura: 19°C
Rocío: 12°C
Humedad: 64%
Barómetro: 1013.2 hPa
Clouds: Despejado
Visibilidad: 16 km
2020/07/15 16:54 KHWD 151654Z 00000KT 10SM CLR 19/12 A2992 RMK AO2 SLP142 T01890117
KLVK - Livermore, California, USA
Distance from station: NNE 51km
Actualización: 15/07/2020 18:53
Despejado
Despejado
 Viento del SSO
Viento: SSO 6 km/h
Temperatura: 18°C
Rocío: 12°C
Humedad: 68%
Barómetro: 1013.2 hPa
Clouds: Despejado
Visibilidad: 16 km
2020/07/15 16:53 KLVK 151653Z 21003KT 10SM CLR 18/12 A2992 RMK AO2 SLP127 T01830122